UKV179 EGLL-LOWW
Flight info
| Callsign | UKV179 |
|---|---|
| Flight time | 2h 12m |
| Altitude | 37000 |
| Route | DET L6 DVR UL9 KONAN DCT KOK DCT MATUG DCT GUBAX DCT BARSU DCT EKSOS DCT LULAR DCT RUDAP DCT BUDEX BUDEX2W |
| Aircraft | B738/M-SDE2E3FGHIRWXY/LB1 |
Departure
| Time | 2026-04-22 21:07 |
|---|---|
| Airport | London Heathrow Airport (EGLL) |
Arrival
| Time | 2026-04-22 23:20 |
|---|---|
| Airport | Vienna International Airport (LOWW) |
| Time | Latitude | Longitude | Altitude | Speed | Heading |
|---|---|---|---|---|---|
| 2026-04-22 20:40 | 51.46820 | -0.44674 | 85 ft | 0 kts | 268° |
| 2026-04-22 20:49 | 51.46820 | -0.44652 | 90 ft | 3 kts | 268° |
| 2026-04-22 20:50 | 51.46821 | -0.44622 | 87 ft | 3 kts | 268° |
| 2026-04-22 20:50 | 51.46823 | -0.44592 | 86 ft | 3 kts | 246° |
| 2026-04-22 20:50 | 51.46834 | -0.44567 | 90 ft | 3 kts | 214° |
| 2026-04-22 20:50 | 51.46851 | -0.44556 | 87 ft | 3 kts | 185° |
| 2026-04-22 20:51 | 51.46864 | -0.44554 | 85 ft | 0 kts | 185° |
| 2026-04-22 20:57 | 51.46861 | -0.44554 | 89 ft | 1 kts | 181° |
| 2026-04-22 20:57 | 51.46840 | -0.44552 | 85 ft | 5 kts | 177° |
| 2026-04-22 20:57 | 51.46798 | -0.44549 | 85 ft | 7 kts | 176° |
| 2026-04-22 20:58 | 51.46763 | -0.44546 | 85 ft | 8 kts | 177° |
| 2026-04-22 20:58 | 51.46685 | -0.44559 | 86 ft | 8 kts | 205° |
| 2026-04-22 20:58 | 51.46665 | -0.44611 | 87 ft | 9 kts | 261° |
| 2026-04-22 20:58 | 51.46660 | -0.44743 | 85 ft | 9 kts | 270° |
| 2026-04-22 20:59 | 51.46660 | -0.44844 | 85 ft | 9 kts | 270° |
| 2026-04-22 20:59 | 51.46661 | -0.44944 | 85 ft | 9 kts | 270° |
| 2026-04-22 20:59 | 51.46661 | -0.45013 | 85 ft | 10 kts | 270° |
| 2026-04-22 20:59 | 51.46660 | -0.45160 | 85 ft | 10 kts | 269° |
| 2026-04-22 21:00 | 51.46660 | -0.45232 | 86 ft | 10 kts | 269° |
| 2026-04-22 21:00 | 51.46660 | -0.45340 | 87 ft | 10 kts | 271° |
| 2026-04-22 21:00 | 51.46661 | -0.45453 | 85 ft | 10 kts | 271° |
| 2026-04-22 21:00 | 51.46659 | -0.45569 | 87 ft | 10 kts | 269° |
| 2026-04-22 21:01 | 51.46659 | -0.45681 | 87 ft | 10 kts | 269° |
| 2026-04-22 21:01 | 51.46658 | -0.45791 | 87 ft | 10 kts | 269° |
| 2026-04-22 21:01 | 51.46659 | -0.45898 | 86 ft | 9 kts | 271° |
| 2026-04-22 21:01 | 51.46656 | -0.46001 | 87 ft | 9 kts | 267° |
| 2026-04-22 21:02 | 51.46657 | -0.46104 | 89 ft | 9 kts | 272° |
| 2026-04-22 21:02 | 51.46658 | -0.46203 | 89 ft | 9 kts | 270° |
| 2026-04-22 21:02 | 51.46658 | -0.46300 | 87 ft | 9 kts | 269° |
| 2026-04-22 21:02 | 51.46658 | -0.46396 | 89 ft | 9 kts | 269° |
| 2026-04-22 21:03 | 51.46657 | -0.46490 | 87 ft | 8 kts | 269° |
| 2026-04-22 21:03 | 51.46656 | -0.46582 | 85 ft | 8 kts | 269° |
| 2026-04-22 21:03 | 51.46655 | -0.46670 | 85 ft | 8 kts | 269° |
| 2026-04-22 21:03 | 51.46654 | -0.46758 | 85 ft | 8 kts | 271° |
| 2026-04-22 21:04 | 51.46655 | -0.46853 | 85 ft | 9 kts | 270° |
| 2026-04-22 21:04 | 51.46656 | -0.46961 | 85 ft | 10 kts | 272° |
| 2026-04-22 21:04 | 51.46656 | -0.47085 | 88 ft | 12 kts | 268° |
| 2026-04-22 21:04 | 51.46654 | -0.47225 | 85 ft | 13 kts | 268° |
| 2026-04-22 21:05 | 51.46655 | -0.47379 | 85 ft | 14 kts | 270° |
| 2026-04-22 21:05 | 51.46654 | -0.47545 | 85 ft | 15 kts | 270° |
| 2026-04-22 21:05 | 51.46654 | -0.47724 | 85 ft | 17 kts | 270° |
| 2026-04-22 21:05 | 51.46654 | -0.47914 | 85 ft | 17 kts | 270° |
| 2026-04-22 21:06 | 51.46653 | -0.48106 | 85 ft | 17 kts | 275° |
| 2026-04-22 21:06 | 51.46593 | -0.48211 | 87 ft | 6 kts | 172° |
| 2026-04-22 21:06 | 51.46544 | -0.48214 | 87 ft | 9 kts | 182° |
| 2026-04-22 21:06 | 51.46482 | -0.48139 | 87 ft | 16 kts | 92° |
| 2026-04-22 21:07 | 51.46489 | -0.47652 | 84 ft | 79 kts | 89° |
| 2026-04-22 21:07 | 51.46496 | -0.46414 | 89 ft | 141 kts | 87° |
| 2026-04-22 21:07 | 51.46539 | -0.44683 | 474 ft | 161 kts | 87° |
| 2026-04-22 21:07 | 51.46557 | -0.42876 | 1360 ft | 164 kts | 92° |
| 2026-04-22 21:08 | 51.46407 | -0.40990 | 2026 ft | 177 kts | 102° |
| 2026-04-22 21:08 | 51.45901 | -0.39147 | 2508 ft | 188 kts | 132° |
| 2026-04-22 21:08 | 51.44719 | -0.38131 | 3058 ft | 196 kts | 149° |
| 2026-04-22 21:08 | 51.43784 | -0.36604 | 3419 ft | 205 kts | 109° |
| 2026-04-22 21:09 | 51.43560 | -0.34226 | 3660 ft | 228 kts | 99° |
| 2026-04-22 21:09 | 51.43239 | -0.31666 | 4102 ft | 240 kts | 105° |
| 2026-04-22 21:09 | 51.42782 | -0.29048 | 4719 ft | 248 kts | 107° |
| 2026-04-22 21:09 | 51.42373 | -0.26332 | 5349 ft | 253 kts | 101° |
| 2026-04-22 21:10 | 51.42056 | -0.23550 | 6055 ft | 255 kts | 101° |
| 2026-04-22 21:10 | 51.41719 | -0.20785 | 6749 ft | 258 kts | 102° |
| 2026-04-22 21:10 | 51.41346 | -0.17914 | 7398 ft | 261 kts | 103° |
| 2026-04-22 21:10 | 51.40968 | -0.15097 | 8064 ft | 263 kts | 103° |
| 2026-04-22 21:11 | 51.40577 | -0.12223 | 8715 ft | 266 kts | 103° |
| 2026-04-22 21:11 | 51.40173 | -0.09285 | 9138 ft | 279 kts | 103° |
| 2026-04-22 21:11 | 51.39736 | -0.06138 | 9303 ft | 300 kts | 103° |
| 2026-04-22 21:11 | 51.39267 | -0.02771 | 9485 ft | 319 kts | 103° |
| 2026-04-22 21:12 | 51.38775 | 0.00759 | 9891 ft | 330 kts | 103° |
| 2026-04-22 21:12 | 51.38272 | 0.04367 | 10479 ft | 334 kts | 103° |
| 2026-04-22 21:12 | 51.37765 | 0.08000 | 11122 ft | 335 kts | 103° |
| 2026-04-22 21:12 | 51.37254 | 0.11651 | 11730 ft | 338 kts | 103° |
| 2026-04-22 21:13 | 51.36737 | 0.15337 | 12351 ft | 341 kts | 103° |
| 2026-04-22 21:13 | 51.36215 | 0.19051 | 12989 ft | 343 kts | 103° |
| 2026-04-22 21:13 | 51.35688 | 0.22790 | 13641 ft | 346 kts | 104° |
| 2026-04-22 21:13 | 51.35154 | 0.26559 | 14281 ft | 349 kts | 104° |
| 2026-04-22 21:14 | 51.34614 | 0.30363 | 14856 ft | 353 kts | 103° |
| 2026-04-22 21:14 | 51.34067 | 0.34208 | 15437 ft | 356 kts | 103° |
| 2026-04-22 21:14 | 51.33515 | 0.38090 | 16014 ft | 360 kts | 103° |
| 2026-04-22 21:14 | 51.32955 | 0.42015 | 16603 ft | 364 kts | 103° |
| 2026-04-22 21:15 | 51.32389 | 0.45973 | 17323 ft | 367 kts | 103° |
| 2026-04-22 21:15 | 51.31813 | 0.49969 | 17904 ft | 370 kts | 102° |
| 2026-04-22 21:15 | 51.31233 | 0.53993 | 18501 ft | 373 kts | 102° |
| 2026-04-22 21:15 | 51.30646 | 0.58052 | 19015 ft | 377 kts | 102° |
| 2026-04-22 21:16 | 51.30017 | 0.62144 | 19489 ft | 381 kts | 104° |
| 2026-04-22 21:16 | 51.29295 | 0.66241 | 19928 ft | 385 kts | 104° |
| 2026-04-22 21:16 | 51.28531 | 0.70368 | 20366 ft | 389 kts | 104° |
| 2026-04-22 21:16 | 51.27751 | 0.74530 | 20808 ft | 393 kts | 104° |
| 2026-04-22 21:17 | 51.26964 | 0.78742 | 21233 ft | 398 kts | 104° |
| 2026-04-22 21:17 | 51.26165 | 0.82996 | 21639 ft | 402 kts | 104° |
| 2026-04-22 21:17 | 51.25360 | 0.87297 | 22053 ft | 406 kts | 104° |
| 2026-04-22 21:17 | 51.24555 | 0.91637 | 22465 ft | 410 kts | 104° |
| 2026-04-22 21:18 | 51.23746 | 0.96016 | 22906 ft | 413 kts | 103° |
| 2026-04-22 21:18 | 51.22938 | 1.00386 | 23582 ft | 410 kts | 103° |
| 2026-04-22 21:18 | 51.22125 | 1.04773 | 23932 ft | 415 kts | 104° |
| 2026-04-22 21:18 | 51.21311 | 1.09161 | 24200 ft | 421 kts | 104° |
| 2026-04-22 21:19 | 51.20463 | 1.13712 | 24526 ft | 424 kts | 104° |
| 2026-04-22 21:19 | 51.19630 | 1.18173 | 24849 ft | 428 kts | 104° |
| 2026-04-22 21:19 | 51.18777 | 1.22735 | 25144 ft | 432 kts | 103° |
| 2026-04-22 21:19 | 51.17913 | 1.27340 | 25450 ft | 435 kts | 104° |
| 2026-04-22 21:20 | 51.17051 | 1.31976 | 25759 ft | 438 kts | 103° |
| 2026-04-22 21:20 | 51.16276 | 1.36685 | 26055 ft | 440 kts | 97° |
| 2026-04-22 21:20 | 51.15924 | 1.41515 | 26344 ft | 440 kts | 90° |
| 2026-04-22 21:20 | 51.15720 | 1.46387 | 26689 ft | 442 kts | 89° |
| 2026-04-22 21:21 | 51.15525 | 1.51279 | 27007 ft | 444 kts | 89° |
| 2026-04-22 21:21 | 51.15318 | 1.56205 | 27272 ft | 447 kts | 89° |
| 2026-04-22 21:21 | 51.15093 | 1.61159 | 27535 ft | 451 kts | 90° |
| 2026-04-22 21:21 | 51.14853 | 1.66148 | 27798 ft | 453 kts | 90° |
| 2026-04-22 21:22 | 51.14603 | 1.71169 | 28086 ft | 456 kts | 90° |
| 2026-04-22 21:22 | 51.14346 | 1.76222 | 28356 ft | 459 kts | 90° |
| 2026-04-22 21:22 | 51.14085 | 1.81293 | 28607 ft | 461 kts | 89° |
| 2026-04-22 21:22 | 51.13820 | 1.86401 | 28853 ft | 464 kts | 89° |
| 2026-04-22 21:23 | 51.13552 | 1.91539 | 29152 ft | 466 kts | 90° |
| 2026-04-22 21:23 | 51.13283 | 1.96666 | 29564 ft | 464 kts | 90° |
| 2026-04-22 21:23 | 51.13014 | 2.01793 | 29827 ft | 467 kts | 90° |
| 2026-04-22 21:23 | 51.12738 | 2.06966 | 30001 ft | 470 kts | 89° |
| 2026-04-22 21:24 | 51.12466 | 2.12163 | 30239 ft | 472 kts | 89° |
| 2026-04-22 21:24 | 51.12190 | 2.17373 | 30559 ft | 472 kts | 89° |
| 2026-04-22 21:24 | 51.11897 | 2.22564 | 30888 ft | 471 kts | 90° |
| 2026-04-22 21:24 | 51.11602 | 2.27747 | 31200 ft | 469 kts | 90° |
| 2026-04-22 21:25 | 51.11316 | 2.32920 | 31467 ft | 470 kts | 90° |
| 2026-04-22 21:25 | 51.11033 | 2.38097 | 31778 ft | 469 kts | 90° |
| 2026-04-22 21:25 | 51.10757 | 2.43213 | 32371 ft | 460 kts | 90° |
| 2026-04-22 21:25 | 51.10491 | 2.48272 | 32712 ft | 459 kts | 90° |
| 2026-04-22 21:26 | 51.10204 | 2.53350 | 32836 ft | 463 kts | 90° |
| 2026-04-22 21:26 | 51.09893 | 2.58464 | 32954 ft | 466 kts | 91° |
| 2026-04-22 21:26 | 51.09575 | 2.63587 | 33235 ft | 465 kts | 92° |
| 2026-04-22 21:26 | 51.09061 | 2.68663 | 33549 ft | 467 kts | 99° |
| 2026-04-22 21:27 | 51.08272 | 2.73682 | 33832 ft | 468 kts | 101° |
| 2026-04-22 21:27 | 51.07417 | 2.78678 | 34044 ft | 469 kts | 101° |
| 2026-04-22 21:27 | 51.06543 | 2.83671 | 34267 ft | 469 kts | 101° |
| 2026-04-22 21:27 | 51.05673 | 2.88643 | 34651 ft | 464 kts | 102° |
| 2026-04-22 21:28 | 51.04822 | 2.93568 | 34984 ft | 461 kts | 102° |
| 2026-04-22 21:28 | 51.03995 | 2.98489 | 35140 ft | 461 kts | 100° |
| 2026-04-22 21:28 | 51.02369 | 3.08395 | 35388 ft | 464 kts | 102° |
| 2026-04-22 21:29 | 51.01525 | 3.13261 | 35610 ft | 463 kts | 102° |
| 2026-04-22 21:29 | 51.00667 | 3.18172 | 35831 ft | 461 kts | 102° |
| 2026-04-22 21:29 | 50.99823 | 3.23086 | 35999 ft | 461 kts | 102° |
| 2026-04-22 21:29 | 50.98987 | 3.28005 | 36152 ft | 462 kts | 102° |
| 2026-04-22 21:30 | 50.98152 | 3.32925 | 36364 ft | 461 kts | 102° |
| 2026-04-22 21:30 | 50.97320 | 3.37816 | 36612 ft | 458 kts | 102° |
| 2026-04-22 21:30 | 50.96513 | 3.42694 | 36827 ft | 456 kts | 100° |
| 2026-04-22 21:30 | 50.95783 | 3.47593 | 36971 ft | 456 kts | 100° |
| 2026-04-22 21:31 | 50.94998 | 3.52477 | 37072 ft | 458 kts | 102° |
| 2026-04-22 21:31 | 50.94141 | 3.57336 | 37221 ft | 458 kts | 102° |
| 2026-04-22 21:31 | 50.93261 | 3.62183 | 37347 ft | 458 kts | 102° |
| 2026-04-22 21:31 | 50.92376 | 3.67048 | 37336 ft | 460 kts | 102° |
| 2026-04-22 21:32 | 50.90632 | 3.76780 | 37364 ft | 458 kts | 102° |
| 2026-04-22 21:32 | 50.88922 | 3.86460 | 37351 ft | 456 kts | 102° |
| 2026-04-22 21:33 | 50.87202 | 3.96112 | 37351 ft | 454 kts | 104° |
| 2026-04-22 21:33 | 50.85344 | 4.05652 | 37355 ft | 452 kts | 103° |
| 2026-04-22 21:34 | 50.83694 | 4.15234 | 37365 ft | 451 kts | 102° |
| 2026-04-22 21:34 | 50.82051 | 4.24791 | 37367 ft | 450 kts | 103° |
| 2026-04-22 21:35 | 50.80362 | 4.34318 | 37370 ft | 450 kts | 103° |
| 2026-04-22 21:35 | 50.78650 | 4.43830 | 37363 ft | 450 kts | 101° |
| 2026-04-22 21:36 | 50.77087 | 4.53412 | 37366 ft | 451 kts | 102° |
| 2026-04-22 21:36 | 50.75297 | 4.62929 | 37381 ft | 453 kts | 103° |
| 2026-04-22 21:37 | 50.73368 | 4.72434 | 37365 ft | 456 kts | 106° |
| 2026-04-22 21:37 | 50.71508 | 4.81939 | 37363 ft | 457 kts | 103° |
| 2026-04-22 21:38 | 50.69790 | 4.91609 | 37361 ft | 458 kts | 103° |
| 2026-04-22 21:38 | 50.68035 | 5.01288 | 37364 ft | 459 kts | 103° |
| 2026-04-22 21:39 | 50.66234 | 5.10951 | 37361 ft | 459 kts | 104° |
| 2026-04-22 21:39 | 50.64417 | 5.20569 | 37376 ft | 458 kts | 104° |
| 2026-04-22 21:40 | 50.62597 | 5.30151 | 37367 ft | 455 kts | 104° |
| 2026-04-22 21:40 | 50.60780 | 5.39677 | 37345 ft | 453 kts | 104° |
| 2026-04-22 21:41 | 50.58967 | 5.49134 | 37345 ft | 450 kts | 104° |
| 2026-04-22 21:41 | 50.57157 | 5.58533 | 37362 ft | 448 kts | 104° |
| 2026-04-22 21:42 | 50.55349 | 5.67880 | 37358 ft | 446 kts | 104° |
| 2026-04-22 21:42 | 50.53539 | 5.77188 | 37353 ft | 445 kts | 104° |
| 2026-04-22 21:43 | 50.51753 | 5.86483 | 37360 ft | 444 kts | 104° |
| 2026-04-22 21:43 | 50.49943 | 5.95756 | 37351 ft | 444 kts | 104° |
| 2026-04-22 21:44 | 50.48099 | 6.05029 | 37359 ft | 445 kts | 104° |
| 2026-04-22 21:44 | 50.46252 | 6.14313 | 37346 ft | 446 kts | 104° |
| 2026-04-22 21:45 | 50.44393 | 6.23621 | 37346 ft | 448 kts | 104° |
| 2026-04-22 21:45 | 50.42841 | 6.31373 | 37337 ft | 449 kts | 104° |
| 2026-04-22 21:46 | 50.41279 | 6.40823 | 37334 ft | 447 kts | 94° |
| 2026-04-22 21:46 | 50.40580 | 6.50503 | 37346 ft | 447 kts | 93° |
| 2026-04-22 21:47 | 50.39915 | 6.60208 | 37333 ft | 448 kts | 94° |
| 2026-04-22 21:47 | 50.39191 | 6.69907 | 37336 ft | 448 kts | 94° |
| 2026-04-22 21:48 | 50.38431 | 6.79589 | 37331 ft | 447 kts | 94° |
| 2026-04-22 21:48 | 50.37658 | 6.89245 | 37336 ft | 446 kts | 94° |
| 2026-04-22 21:49 | 50.36878 | 6.98881 | 37356 ft | 445 kts | 94° |
| 2026-04-22 21:49 | 50.36096 | 7.08470 | 37334 ft | 443 kts | 95° |
| 2026-04-22 21:50 | 50.35310 | 7.18013 | 37340 ft | 441 kts | 95° |
| 2026-04-22 21:50 | 50.34519 | 7.27512 | 37346 ft | 439 kts | 95° |
| 2026-04-22 21:51 | 50.33723 | 7.36971 | 37341 ft | 437 kts | 95° |
| 2026-04-22 21:52 | 50.32526 | 7.51032 | 37338 ft | 436 kts | 95° |
| 2026-04-22 21:52 | 50.31714 | 7.60420 | 37346 ft | 435 kts | 96° |
| 2026-04-22 21:53 | 50.30776 | 7.69765 | 37340 ft | 434 kts | 95° |
| 2026-04-22 21:53 | 50.30037 | 7.79138 | 37346 ft | 435 kts | 95° |
| 2026-04-22 21:54 | 50.29237 | 7.88526 | 37356 ft | 436 kts | 96° |
| 2026-04-22 21:54 | 50.28168 | 7.97868 | 37350 ft | 438 kts | 100° |
| 2026-04-22 21:55 | 50.26848 | 8.07161 | 37361 ft | 438 kts | 101° |
| 2026-04-22 21:55 | 50.25514 | 8.16459 | 37346 ft | 439 kts | 100° |
| 2026-04-22 21:56 | 50.24196 | 8.25774 | 37346 ft | 439 kts | 100° |
| 2026-04-22 21:56 | 50.22886 | 8.35081 | 37351 ft | 439 kts | 100° |
| 2026-04-22 21:57 | 50.21573 | 8.44380 | 37342 ft | 438 kts | 100° |
| 2026-04-22 21:57 | 50.20256 | 8.53646 | 37345 ft | 436 kts | 100° |
| 2026-04-22 21:58 | 50.18934 | 8.62880 | 37343 ft | 435 kts | 100° |
| 2026-04-22 21:58 | 50.17611 | 8.72075 | 37343 ft | 434 kts | 101° |
| 2026-04-22 21:59 | 50.16292 | 8.81179 | 37339 ft | 433 kts | 101° |
| 2026-04-22 21:59 | 50.14960 | 8.90320 | 37339 ft | 432 kts | 101° |
| 2026-04-22 22:00 | 50.13624 | 8.99435 | 37334 ft | 431 kts | 101° |
| 2026-04-22 22:00 | 50.12282 | 9.08545 | 37338 ft | 431 kts | 101° |
| 2026-04-22 22:01 | 50.10932 | 9.17645 | 37351 ft | 431 kts | 101° |
| 2026-04-22 22:01 | 50.09575 | 9.26746 | 37338 ft | 432 kts | 101° |
| 2026-04-22 22:02 | 50.08208 | 9.35858 | 37336 ft | 432 kts | 101° |
| 2026-04-22 22:02 | 50.06833 | 9.44973 | 37338 ft | 433 kts | 101° |
| 2026-04-22 22:03 | 50.05449 | 9.54088 | 37332 ft | 433 kts | 101° |
| 2026-04-22 22:03 | 50.04060 | 9.63191 | 37356 ft | 433 kts | 101° |
| 2026-04-22 22:04 | 50.02663 | 9.72292 | 37350 ft | 433 kts | 101° |
| 2026-04-22 22:04 | 50.01260 | 9.81381 | 37334 ft | 432 kts | 101° |
| 2026-04-22 22:05 | 49.99851 | 9.90453 | 37340 ft | 431 kts | 101° |
| 2026-04-22 22:05 | 49.98438 | 9.99505 | 37337 ft | 431 kts | 101° |
| 2026-04-22 22:06 | 49.97020 | 10.08545 | 37364 ft | 430 kts | 101° |
| 2026-04-22 22:06 | 49.95605 | 10.17509 | 37348 ft | 430 kts | 101° |
| 2026-04-22 22:07 | 49.94176 | 10.26521 | 37355 ft | 430 kts | 101° |
| 2026-04-22 22:07 | 49.92742 | 10.35512 | 37346 ft | 429 kts | 102° |
| 2026-04-22 22:08 | 49.90938 | 10.44337 | 37354 ft | 430 kts | 109° |
| 2026-04-22 22:08 | 49.88659 | 10.52934 | 37360 ft | 431 kts | 110° |
| 2026-04-22 22:09 | 49.86368 | 10.61519 | 37349 ft | 431 kts | 109° |
| 2026-04-22 22:09 | 49.84110 | 10.70114 | 37357 ft | 431 kts | 109° |
| 2026-04-22 22:10 | 49.81862 | 10.78711 | 37355 ft | 430 kts | 109° |
| 2026-04-22 22:10 | 49.79613 | 10.87298 | 37335 ft | 431 kts | 109° |
| 2026-04-22 22:11 | 49.77355 | 10.95881 | 37347 ft | 431 kts | 109° |
| 2026-04-22 22:11 | 49.75090 | 11.04455 | 37333 ft | 431 kts | 109° |
| 2026-04-22 22:12 | 49.72822 | 11.13012 | 37328 ft | 430 kts | 109° |
| 2026-04-22 22:12 | 49.70549 | 11.21555 | 37328 ft | 429 kts | 109° |
| 2026-04-22 22:13 | 49.68273 | 11.30080 | 37326 ft | 429 kts | 110° |
| 2026-04-22 22:13 | 49.65993 | 11.38590 | 37332 ft | 429 kts | 110° |
| 2026-04-22 22:14 | 49.63993 | 11.47220 | 37333 ft | 426 kts | 105° |
| 2026-04-22 22:14 | 49.62218 | 11.55934 | 37320 ft | 426 kts | 105° |
| 2026-04-22 22:15 | 49.60440 | 11.64635 | 37323 ft | 425 kts | 105° |
| 2026-04-22 22:15 | 49.58637 | 11.73316 | 37326 ft | 425 kts | 105° |
| 2026-04-22 22:16 | 49.56816 | 11.82000 | 37318 ft | 426 kts | 105° |
| 2026-04-22 22:16 | 49.54999 | 11.90610 | 37320 ft | 426 kts | 105° |
| 2026-04-22 22:17 | 49.53162 | 11.99284 | 37318 ft | 426 kts | 105° |
| 2026-04-22 22:17 | 49.51318 | 12.07956 | 37318 ft | 426 kts | 105° |
| 2026-04-22 22:18 | 49.49466 | 12.16629 | 37327 ft | 427 kts | 105° |
| 2026-04-22 22:18 | 49.47609 | 12.25288 | 37329 ft | 426 kts | 105° |
| 2026-04-22 22:19 | 49.45746 | 12.33938 | 37323 ft | 426 kts | 105° |
| 2026-04-22 22:19 | 49.43878 | 12.42575 | 37323 ft | 426 kts | 105° |
| 2026-04-22 22:20 | 49.42005 | 12.51197 | 37327 ft | 425 kts | 105° |
| 2026-04-22 22:20 | 49.40129 | 12.59800 | 37347 ft | 424 kts | 105° |
| 2026-04-22 22:21 | 49.38252 | 12.68382 | 37325 ft | 424 kts | 105° |
| 2026-04-22 22:21 | 49.36366 | 12.76950 | 37314 ft | 423 kts | 106° |
| 2026-04-22 22:22 | 49.34323 | 12.85420 | 37320 ft | 424 kts | 108° |
| 2026-04-22 22:22 | 49.32216 | 12.93853 | 37315 ft | 423 kts | 108° |
| 2026-04-22 22:23 | 49.30126 | 13.02284 | 37314 ft | 423 kts | 107° |
| 2026-04-22 22:23 | 49.28045 | 13.10705 | 37313 ft | 423 kts | 107° |
| 2026-04-22 22:24 | 49.25958 | 13.19130 | 37314 ft | 423 kts | 108° |
| 2026-04-22 22:24 | 49.23860 | 13.27550 | 37308 ft | 424 kts | 108° |
| 2026-04-22 22:25 | 49.21658 | 13.35853 | 37313 ft | 424 kts | 109° |
| 2026-04-22 22:25 | 49.19386 | 13.44193 | 37317 ft | 426 kts | 109° |
| 2026-04-22 22:26 | 49.17111 | 13.52560 | 37307 ft | 427 kts | 109° |
| 2026-04-22 22:26 | 49.14836 | 13.60937 | 37315 ft | 428 kts | 109° |
| 2026-04-22 22:27 | 49.12550 | 13.69338 | 37322 ft | 429 kts | 109° |
| 2026-04-22 22:27 | 49.10250 | 13.77768 | 37319 ft | 431 kts | 109° |
| 2026-04-22 22:28 | 49.07933 | 13.86223 | 37265 ft | 434 kts | 109° |
| 2026-04-22 22:28 | 49.06757 | 13.90510 | 36755 ft | 441 kts | 109° |
| 2026-04-22 22:28 | 49.05577 | 13.94792 | 36394 ft | 433 kts | 109° |
| 2026-04-22 22:28 | 49.04416 | 13.98995 | 35978 ft | 428 kts | 109° |
| 2026-04-22 22:29 | 49.03250 | 14.03218 | 34911 ft | 436 kts | 109° |
| 2026-04-22 22:29 | 49.02088 | 14.07414 | 34814 ft | 421 kts | 109° |
| 2026-04-22 22:29 | 49.00962 | 14.11466 | 34547 ft | 413 kts | 109° |
| 2026-04-22 22:29 | 48.99855 | 14.15451 | 34374 ft | 403 kts | 109° |
| 2026-04-22 22:30 | 48.98774 | 14.19337 | 34103 ft | 395 kts | 109° |
| 2026-04-22 22:30 | 48.97711 | 14.23166 | 33628 ft | 391 kts | 109° |
| 2026-04-22 22:30 | 48.96653 | 14.26966 | 33129 ft | 389 kts | 109° |
| 2026-04-22 22:30 | 48.95598 | 14.30742 | 32654 ft | 386 kts | 109° |
| 2026-04-22 22:31 | 48.94458 | 14.34429 | 32211 ft | 386 kts | 117° |
| 2026-04-22 22:31 | 48.92915 | 14.37717 | 31796 ft | 387 kts | 122° |
| 2026-04-22 22:31 | 48.91239 | 14.40958 | 31379 ft | 383 kts | 123° |
| 2026-04-22 22:31 | 48.89587 | 14.44119 | 30955 ft | 380 kts | 123° |
| 2026-04-22 22:32 | 48.87976 | 14.47226 | 30540 ft | 378 kts | 123° |
| 2026-04-22 22:32 | 48.86348 | 14.50397 | 30093 ft | 374 kts | 123° |
| 2026-04-22 22:32 | 48.84790 | 14.53480 | 29601 ft | 372 kts | 122° |
| 2026-04-22 22:32 | 48.83229 | 14.56597 | 29054 ft | 370 kts | 122° |
| 2026-04-22 22:33 | 48.81663 | 14.59691 | 28569 ft | 369 kts | 122° |
| 2026-04-22 22:33 | 48.80102 | 14.62758 | 28110 ft | 366 kts | 121° |
| 2026-04-22 22:33 | 48.78552 | 14.65799 | 27636 ft | 364 kts | 121° |
| 2026-04-22 22:33 | 48.77006 | 14.68832 | 27121 ft | 363 kts | 121° |
| 2026-04-22 22:34 | 48.75468 | 14.71852 | 26630 ft | 362 kts | 121° |
| 2026-04-22 22:34 | 48.73931 | 14.74868 | 26162 ft | 361 kts | 121° |
| 2026-04-22 22:34 | 48.72894 | 14.76904 | 25818 ft | 361 kts | 121° |
| 2026-04-22 22:34 | 48.70855 | 14.80892 | 25195 ft | 360 kts | 122° |
| 2026-04-22 22:35 | 48.69326 | 14.83877 | 24775 ft | 358 kts | 122° |
| 2026-04-22 22:35 | 48.68315 | 14.85848 | 24492 ft | 357 kts | 122° |
| 2026-04-22 22:35 | 48.66773 | 14.88850 | 24083 ft | 356 kts | 122° |
| 2026-04-22 22:35 | 48.65275 | 14.91761 | 23644 ft | 355 kts | 122° |
| 2026-04-22 22:36 | 48.63764 | 14.94695 | 23199 ft | 352 kts | 121° |
| 2026-04-22 22:36 | 48.62263 | 14.97608 | 22780 ft | 350 kts | 121° |
| 2026-04-22 22:36 | 48.60754 | 15.00534 | 22373 ft | 347 kts | 121° |
| 2026-04-22 22:36 | 48.59324 | 15.03384 | 21990 ft | 341 kts | 116° |
| 2026-04-22 22:37 | 48.58406 | 15.06591 | 21623 ft | 328 kts | 99° |
| 2026-04-22 22:37 | 48.57844 | 15.09921 | 21192 ft | 327 kts | 99° |
| 2026-04-22 22:37 | 48.57300 | 15.13230 | 20848 ft | 324 kts | 98° |
| 2026-04-22 22:37 | 48.56754 | 15.16527 | 20450 ft | 323 kts | 99° |
| 2026-04-22 22:38 | 48.56202 | 15.19804 | 20073 ft | 321 kts | 99° |
| 2026-04-22 22:38 | 48.55646 | 15.23067 | 19702 ft | 320 kts | 99° |
| 2026-04-22 22:38 | 48.55087 | 15.26315 | 19317 ft | 319 kts | 99° |
| 2026-04-22 22:38 | 48.54525 | 15.29554 | 18949 ft | 319 kts | 99° |
| 2026-04-22 22:39 | 48.53963 | 15.32788 | 18596 ft | 318 kts | 99° |
| 2026-04-22 22:39 | 48.53400 | 15.36020 | 18170 ft | 318 kts | 99° |
| 2026-04-22 22:39 | 48.52838 | 15.39243 | 17763 ft | 317 kts | 99° |
| 2026-04-22 22:39 | 48.52279 | 15.42455 | 17363 ft | 316 kts | 99° |
| 2026-04-22 22:40 | 48.51821 | 15.45658 | 17145 ft | 307 kts | 91° |
| 2026-04-22 22:40 | 48.51634 | 15.48831 | 17004 ft | 305 kts | 88° |
| 2026-04-22 22:40 | 48.51504 | 15.52092 | 16877 ft | 317 kts | 88° |
| 2026-04-22 22:40 | 48.51358 | 15.55437 | 16722 ft | 322 kts | 89° |
| 2026-04-22 22:41 | 48.51187 | 15.58796 | 16540 ft | 320 kts | 89° |
| 2026-04-22 22:41 | 48.51002 | 15.62128 | 16373 ft | 318 kts | 90° |
| 2026-04-22 22:41 | 48.50815 | 15.65433 | 16227 ft | 316 kts | 90° |
| 2026-04-22 22:41 | 48.50625 | 15.68724 | 16075 ft | 314 kts | 90° |
| 2026-04-22 22:42 | 48.50436 | 15.72003 | 15924 ft | 314 kts | 90° |
| 2026-04-22 22:42 | 48.50247 | 15.75273 | 15781 ft | 314 kts | 90° |
| 2026-04-22 22:42 | 48.50055 | 15.78572 | 15643 ft | 318 kts | 90° |
| 2026-04-22 22:42 | 48.49859 | 15.81912 | 15484 ft | 320 kts | 90° |
| 2026-04-22 22:43 | 48.49660 | 15.85245 | 15318 ft | 318 kts | 90° |
| 2026-04-22 22:43 | 48.49461 | 15.88557 | 15163 ft | 317 kts | 90° |
| 2026-04-22 22:43 | 48.49262 | 15.91856 | 15011 ft | 316 kts | 90° |
| 2026-04-22 22:43 | 48.49063 | 15.95150 | 14865 ft | 315 kts | 90° |
| 2026-04-22 22:44 | 48.48862 | 15.98439 | 14706 ft | 315 kts | 90° |
| 2026-04-22 22:44 | 48.48662 | 16.01728 | 14561 ft | 315 kts | 90° |
| 2026-04-22 22:44 | 48.48461 | 16.05013 | 14408 ft | 315 kts | 90° |
| 2026-04-22 22:44 | 48.48263 | 16.08258 | 14261 ft | 315 kts | 90° |
| 2026-04-22 22:45 | 48.48071 | 16.11549 | 14110 ft | 315 kts | 89° |
| 2026-04-22 22:45 | 48.47936 | 16.14847 | 13947 ft | 315 kts | 88° |
| 2026-04-22 22:45 | 48.47821 | 16.18150 | 13803 ft | 315 kts | 88° |
| 2026-04-22 22:45 | 48.47707 | 16.21448 | 13636 ft | 315 kts | 88° |
| 2026-04-22 22:46 | 48.47587 | 16.24750 | 13473 ft | 315 kts | 88° |
| 2026-04-22 22:46 | 48.47462 | 16.28050 | 13310 ft | 315 kts | 89° |
| 2026-04-22 22:46 | 48.47332 | 16.31342 | 13157 ft | 315 kts | 89° |
| 2026-04-22 22:46 | 48.47189 | 16.34635 | 13008 ft | 314 kts | 89° |
| 2026-04-22 22:47 | 48.47055 | 16.37921 | 12852 ft | 314 kts | 89° |
| 2026-04-22 22:47 | 48.46925 | 16.41201 | 12702 ft | 313 kts | 89° |
| 2026-04-22 22:47 | 48.46795 | 16.44473 | 12546 ft | 313 kts | 89° |
| 2026-04-22 22:47 | 48.46661 | 16.47742 | 12400 ft | 313 kts | 89° |
| 2026-04-22 22:48 | 48.46519 | 16.51005 | 12240 ft | 313 kts | 92° |
| 2026-04-22 22:48 | 48.45867 | 16.54155 | 12067 ft | 322 kts | 117° |
| 2026-04-22 22:48 | 48.44354 | 16.56653 | 11952 ft | 329 kts | 141° |
| 2026-04-22 22:48 | 48.42279 | 16.58127 | 11805 ft | 334 kts | 161° |
| 2026-04-22 22:49 | 48.40041 | 16.59074 | 11657 ft | 334 kts | 163° |
| 2026-04-22 22:49 | 48.37792 | 16.59971 | 11486 ft | 335 kts | 163° |
| 2026-04-22 22:49 | 48.35537 | 16.60875 | 11316 ft | 335 kts | 163° |
| 2026-04-22 22:49 | 48.33289 | 16.61806 | 11151 ft | 335 kts | 162° |
| 2026-04-22 22:50 | 48.31046 | 16.62758 | 10950 ft | 336 kts | 162° |
| 2026-04-22 22:50 | 48.28782 | 16.63712 | 10630 ft | 338 kts | 162° |
| 2026-04-22 22:50 | 48.26542 | 16.64651 | 10448 ft | 331 kts | 162° |
| 2026-04-22 22:50 | 48.24353 | 16.65568 | 10269 ft | 323 kts | 162° |
| 2026-04-22 22:51 | 48.22210 | 16.66467 | 10104 ft | 316 kts | 162° |
| 2026-04-22 22:51 | 48.20116 | 16.67344 | 9970 ft | 308 kts | 162° |
| 2026-04-22 22:51 | 48.18089 | 16.68190 | 9923 ft | 297 kts | 162° |
| 2026-04-22 22:51 | 48.16103 | 16.69021 | 9681 ft | 294 kts | 162° |
| 2026-04-22 22:52 | 48.14151 | 16.69839 | 9528 ft | 289 kts | 162° |
| 2026-04-22 22:52 | 48.12221 | 16.70647 | 9375 ft | 288 kts | 162° |
| 2026-04-22 22:52 | 48.10297 | 16.71450 | 9255 ft | 287 kts | 162° |
| 2026-04-22 22:52 | 48.08370 | 16.72254 | 9111 ft | 288 kts | 162° |
| 2026-04-22 22:53 | 48.06427 | 16.73064 | 8989 ft | 292 kts | 162° |
| 2026-04-22 22:53 | 48.04462 | 16.73880 | 8835 ft | 293 kts | 162° |
| 2026-04-22 22:53 | 48.02520 | 16.74684 | 8687 ft | 294 kts | 162° |
| 2026-04-22 22:53 | 48.00552 | 16.75498 | 8538 ft | 294 kts | 162° |
| 2026-04-22 22:54 | 47.98581 | 16.76316 | 8403 ft | 294 kts | 162° |
| 2026-04-22 22:54 | 47.96608 | 16.77135 | 8245 ft | 294 kts | 162° |
| 2026-04-22 22:54 | 47.94648 | 16.77947 | 8109 ft | 291 kts | 162° |
| 2026-04-22 22:54 | 47.92704 | 16.78747 | 7956 ft | 288 kts | 162° |
| 2026-04-22 22:55 | 47.90781 | 16.79541 | 7824 ft | 286 kts | 162° |
| 2026-04-22 22:55 | 47.88863 | 16.80333 | 7685 ft | 286 kts | 162° |
| 2026-04-22 22:55 | 47.85022 | 16.81888 | 7417 ft | 286 kts | 163° |
| 2026-04-22 22:56 | 47.83104 | 16.82677 | 7277 ft | 287 kts | 163° |
| 2026-04-22 22:56 | 47.81180 | 16.83471 | 7136 ft | 286 kts | 163° |
| 2026-04-22 22:56 | 47.79286 | 16.84256 | 6984 ft | 279 kts | 162° |
| 2026-04-22 22:56 | 47.77436 | 16.85038 | 6845 ft | 273 kts | 162° |
| 2026-04-22 22:57 | 47.75616 | 16.85791 | 6707 ft | 270 kts | 162° |
| 2026-04-22 22:57 | 47.73788 | 16.86424 | 6558 ft | 272 kts | 175° |
| 2026-04-22 22:57 | 47.71965 | 16.85901 | 6449 ft | 266 kts | 211° |
| 2026-04-22 22:57 | 47.70587 | 16.84161 | 6341 ft | 259 kts | 239° |
| 2026-04-22 22:58 | 47.69808 | 16.81801 | 6240 ft | 254 kts | 258° |
| 2026-04-22 22:58 | 47.69443 | 16.79264 | 6064 ft | 246 kts | 276° |
| 2026-04-22 22:58 | 47.69890 | 16.76976 | 5953 ft | 222 kts | 309° |
| 2026-04-22 22:58 | 47.70905 | 16.75335 | 5754 ft | 212 kts | 327° |
| 2026-04-22 22:59 | 47.72175 | 16.74345 | 5573 ft | 203 kts | 345° |
| 2026-04-22 22:59 | 47.73519 | 16.73798 | 5411 ft | 199 kts | 346° |
| 2026-04-22 22:59 | 47.74850 | 16.73248 | 5249 ft | 198 kts | 346° |
| 2026-04-22 22:59 | 47.76177 | 16.72704 | 5081 ft | 198 kts | 346° |
| 2026-04-22 23:00 | 47.77501 | 16.72160 | 4907 ft | 197 kts | 346° |
| 2026-04-22 23:00 | 47.78818 | 16.71618 | 4729 ft | 195 kts | 346° |
| 2026-04-22 23:00 | 47.80093 | 16.71094 | 4563 ft | 190 kts | 346° |
| 2026-04-22 23:00 | 47.81350 | 16.70573 | 4390 ft | 185 kts | 346° |
| 2026-04-22 23:01 | 47.82579 | 16.70064 | 4249 ft | 176 kts | 346° |
| 2026-04-22 23:01 | 47.83714 | 16.69593 | 4090 ft | 168 kts | 346° |
| 2026-04-22 23:01 | 47.84836 | 16.69128 | 3981 ft | 163 kts | 346° |
| 2026-04-22 23:01 | 47.85906 | 16.68695 | 3916 ft | 161 kts | 347° |
| 2026-04-22 23:02 | 47.87001 | 16.68253 | 3813 ft | 165 kts | 346° |
| 2026-04-22 23:02 | 47.88104 | 16.67806 | 3716 ft | 164 kts | 346° |
| 2026-04-22 23:02 | 47.89201 | 16.67362 | 3617 ft | 163 kts | 346° |
| 2026-04-22 23:02 | 47.90297 | 16.66917 | 3542 ft | 165 kts | 346° |
| 2026-04-22 23:03 | 47.91415 | 16.66464 | 3458 ft | 167 kts | 347° |
| 2026-04-22 23:03 | 47.92526 | 16.65947 | 3331 ft | 166 kts | 342° |
| 2026-04-22 23:03 | 47.93615 | 16.65453 | 3243 ft | 161 kts | 345° |
| 2026-04-22 23:03 | 47.94695 | 16.65013 | 3178 ft | 157 kts | 345° |
| 2026-04-22 23:04 | 47.95714 | 16.64597 | 3077 ft | 144 kts | 347° |
| 2026-04-22 23:04 | 47.96693 | 16.64216 | 3020 ft | 143 kts | 347° |
| 2026-04-22 23:04 | 47.97625 | 16.63811 | 2765 ft | 140 kts | 342° |
| 2026-04-22 23:04 | 47.98558 | 16.63320 | 2283 ft | 144 kts | 341° |
| 2026-04-22 23:05 | 47.99482 | 16.62861 | 2054 ft | 136 kts | 342° |
| 2026-04-22 23:05 | 48.00378 | 16.62426 | 1765 ft | 135 kts | 339° |
| 2026-04-22 23:05 | 48.01261 | 16.61988 | 1505 ft | 133 kts | 342° |
| 2026-04-22 23:05 | 48.02187 | 16.61564 | 2003 ft | 140 kts | 342° |
| 2026-04-22 23:06 | 48.03238 | 16.61104 | 2150 ft | 181 kts | 343° |
| 2026-04-22 23:06 | 48.04590 | 16.60578 | 1967 ft | 215 kts | 344° |
| 2026-04-22 23:06 | 48.05963 | 16.60054 | 1774 ft | 193 kts | 346° |
| 2026-04-22 23:06 | 48.07222 | 16.59668 | 1332 ft | 178 kts | 345° |
| 2026-04-22 23:07 | 48.08427 | 16.59310 | 854 ft | 173 kts | 341° |
| 2026-04-22 23:07 | 48.09545 | 16.58837 | 626 ft | 156 kts | 333° |
| 2026-04-22 23:07 | 48.10504 | 16.58411 | 630 ft | 155 kts | 349° |
| 2026-04-22 23:07 | 48.11557 | 16.58100 | 1464 ft | 150 kts | 349° |
| 2026-04-22 23:08 | 48.12599 | 16.57786 | 2305 ft | 160 kts | 350° |
| 2026-04-22 23:08 | 48.13747 | 16.57813 | 3125 ft | 175 kts | 20° |
| 2026-04-22 23:08 | 48.14780 | 16.59008 | 3407 ft | 207 kts | 52° |
| 2026-04-22 23:08 | 48.15142 | 16.61036 | 3714 ft | 204 kts | 89° |
| 2026-04-22 23:09 | 48.14627 | 16.63149 | 2966 ft | 241 kts | 122° |
| 2026-04-22 23:09 | 48.13473 | 16.64850 | 3245 ft | 219 kts | 144° |
| 2026-04-22 23:09 | 48.12106 | 16.65938 | 2802 ft | 238 kts | 157° |
| 2026-04-22 23:09 | 48.10461 | 16.66645 | 2369 ft | 250 kts | 169° |
| 2026-04-22 23:10 | 48.08761 | 16.66934 | 2432 ft | 233 kts | 175° |
| 2026-04-22 23:10 | 48.07228 | 16.67190 | 2442 ft | 225 kts | 172° |
| 2026-04-22 23:10 | 48.05629 | 16.67348 | 2331 ft | 220 kts | 179° |
| 2026-04-22 23:10 | 48.04076 | 16.67445 | 2577 ft | 226 kts | 177° |
| 2026-04-22 23:11 | 48.02509 | 16.67718 | 2805 ft | 228 kts | 167° |
| 2026-04-22 23:11 | 48.00965 | 16.68310 | 2876 ft | 228 kts | 162° |
| 2026-04-22 23:11 | 47.99453 | 16.68915 | 3201 ft | 227 kts | 162° |
| 2026-04-22 23:11 | 47.97931 | 16.69623 | 3249 ft | 229 kts | 160° |
| 2026-04-22 23:12 | 47.96429 | 16.70377 | 3441 ft | 230 kts | 159° |
| 2026-04-22 23:12 | 47.94911 | 16.71162 | 3477 ft | 229 kts | 158° |
| 2026-04-22 23:12 | 47.93433 | 16.71972 | 3369 ft | 222 kts | 157° |
| 2026-04-22 23:12 | 47.92031 | 16.72792 | 3256 ft | 213 kts | 155° |
| 2026-04-22 23:13 | 47.90634 | 16.73383 | 3192 ft | 206 kts | 174° |
| 2026-04-22 23:13 | 47.89220 | 16.73158 | 3195 ft | 206 kts | 202° |
| 2026-04-22 23:13 | 47.88010 | 16.72052 | 3240 ft | 203 kts | 232° |
| 2026-04-22 23:13 | 47.87343 | 16.70285 | 3150 ft | 192 kts | 264° |
| 2026-04-22 23:14 | 47.87403 | 16.68459 | 3129 ft | 165 kts | 298° |
| 2026-04-22 23:14 | 47.88042 | 16.67196 | 3127 ft | 150 kts | 329° |
| 2026-04-22 23:14 | 47.88986 | 16.66600 | 3256 ft | 146 kts | 348° |
| 2026-04-22 23:14 | 47.89980 | 16.66286 | 3231 ft | 145 kts | 350° |
| 2026-04-22 23:15 | 47.90976 | 16.66075 | 3169 ft | 145 kts | 355° |
| 2026-04-22 23:15 | 47.91972 | 16.65882 | 3068 ft | 143 kts | 351° |
| 2026-04-22 23:15 | 47.92958 | 16.65633 | 2948 ft | 143 kts | 353° |
| 2026-04-22 23:15 | 47.93935 | 16.65362 | 2962 ft | 143 kts | 349° |
| 2026-04-22 23:16 | 47.94912 | 16.65065 | 3088 ft | 143 kts | 349° |
| 2026-04-22 23:16 | 47.95905 | 16.64770 | 3109 ft | 148 kts | 350° |
| 2026-04-22 23:16 | 47.96913 | 16.64439 | 2943 ft | 146 kts | 347° |
| 2026-04-22 23:16 | 47.97885 | 16.64046 | 2802 ft | 144 kts | 345° |
| 2026-04-22 23:17 | 47.98827 | 16.63622 | 2578 ft | 139 kts | 345° |
| 2026-04-22 23:17 | 47.99744 | 16.63171 | 2334 ft | 139 kts | 342° |
| 2026-04-22 23:17 | 48.00618 | 16.62658 | 2154 ft | 131 kts | 338° |
| 2026-04-22 23:17 | 48.01458 | 16.62143 | 2039 ft | 131 kts | 342° |
| 2026-04-22 23:18 | 48.02338 | 16.61695 | 1988 ft | 136 kts | 346° |
| 2026-04-22 23:18 | 48.03278 | 16.61390 | 1770 ft | 140 kts | 350° |
| 2026-04-22 23:18 | 48.04223 | 16.61115 | 1624 ft | 136 kts | 347° |
| 2026-04-22 23:18 | 48.05148 | 16.60747 | 1392 ft | 141 kts | 344° |
| 2026-04-22 23:19 | 48.06102 | 16.60326 | 1224 ft | 142 kts | 341° |
| 2026-04-22 23:19 | 48.07043 | 16.59921 | 995 ft | 142 kts | 343° |
| 2026-04-22 23:19 | 48.07984 | 16.59537 | 859 ft | 143 kts | 340° |
| 2026-04-22 23:19 | 48.08936 | 16.59075 | 655 ft | 144 kts | 342° |
| 2026-04-22 23:20 | 48.09861 | 16.58708 | 621 ft | 125 kts | 349° |
| 2026-04-22 23:20 | 48.10346 | 16.58511 | 614 ft | 0 kts | 259° |
| 2026-04-22 23:20 | 48.10329 | 16.58487 | 615 ft | 6 kts | 220° |
| 2026-04-22 23:20 | 48.10288 | 16.58459 | 613 ft | 6 kts | 192° |
| 2026-04-22 23:21 | 48.10251 | 16.58450 | 609 ft | 5 kts | 189° |
| 2026-04-22 23:21 | 48.10215 | 16.58435 | 609 ft | 5 kts | 204° |
| 2026-04-22 23:21 | 48.10181 | 16.58417 | 616 ft | 5 kts | 197° |
| 2026-04-22 23:21 | 48.10146 | 16.58401 | 611 ft | 5 kts | 198° |
| 2026-04-22 23:22 | 48.10141 | 16.58349 | 612 ft | 8 kts | 292° |
| 2026-04-22 23:22 | 48.10190 | 16.58294 | 621 ft | 11 kts | 342° |
| 2026-04-22 23:22 | 48.10277 | 16.58260 | 614 ft | 15 kts | 345° |
| 2026-04-22 23:22 | 48.10385 | 16.58210 | 612 ft | 17 kts | 342° |
| 2026-04-22 23:23 | 48.10457 | 16.58176 | 619 ft | 16 kts | 343° |
| 2026-04-22 23:23 | 48.10563 | 16.58133 | 614 ft | 15 kts | 345° |
| 2026-04-22 23:23 | 48.10665 | 16.58090 | 615 ft | 15 kts | 344° |
| 2026-04-22 23:23 | 48.10762 | 16.58049 | 610 ft | 14 kts | 343° |
| 2026-04-22 23:24 | 48.10855 | 16.58008 | 615 ft | 14 kts | 343° |
| 2026-04-22 23:24 | 48.10941 | 16.57958 | 621 ft | 13 kts | 325° |
| 2026-04-22 23:24 | 48.11002 | 16.57862 | 616 ft | 13 kts | 308° |
| 2026-04-22 23:24 | 48.11051 | 16.57753 | 618 ft | 12 kts | 302° |
| 2026-04-22 23:25 | 48.11093 | 16.57643 | 620 ft | 12 kts | 295° |
| 2026-04-22 23:25 | 48.11128 | 16.57528 | 621 ft | 13 kts | 296° |
| 2026-04-22 23:25 | 48.11168 | 16.57406 | 620 ft | 13 kts | 296° |
| 2026-04-22 23:25 | 48.11207 | 16.57286 | 623 ft | 13 kts | 296° |
| 2026-04-22 23:26 | 48.11246 | 16.57168 | 628 ft | 13 kts | 296° |
| 2026-04-22 23:26 | 48.11288 | 16.57040 | 624 ft | 14 kts | 296° |
| 2026-04-22 23:26 | 48.11330 | 16.56911 | 628 ft | 15 kts | 296° |
| 2026-04-22 23:26 | 48.11386 | 16.56764 | 618 ft | 18 kts | 298° |
| 2026-04-22 23:27 | 48.11434 | 16.56592 | 616 ft | 18 kts | 298° |
| 2026-04-22 23:27 | 48.11496 | 16.56419 | 613 ft | 19 kts | 297° |
| 2026-04-22 23:27 | 48.11553 | 16.56241 | 620 ft | 19 kts | 296° |
| 2026-04-22 23:27 | 48.11600 | 16.56065 | 617 ft | 18 kts | 291° |
| 2026-04-22 23:28 | 48.11660 | 16.55905 | 626 ft | 18 kts | 296° |
| 2026-04-22 23:28 | 48.11746 | 16.55786 | 611 ft | 20 kts | 14° |
| 2026-04-22 23:28 | 48.11872 | 16.55772 | 615 ft | 12 kts | 346° |
| 2026-04-22 23:28 | 48.11918 | 16.55756 | 602 ft | 0 kts | 348° |